sensor_id;sensor_type;location;lat;lon;timestamp;pressure;altitude;pressure_sealevel;temperature;humidity
13765;BME280;6953;48.810;9.204;2023-09-12T00:00:41;98350.66;;;21.67;100.00
13765;BME280;6953;48.810;9.204;2023-09-12T00:03:06;98335.63;;;21.66;100.00
13765;BME280;6953;48.810;9.204;2023-09-12T00:05:31;98122.94;;;20.40;100.00
13765;BME280;6953;48.810;9.204;2023-09-12T00:07:57;98348.69;;;21.69;100.00
13765;BME280;6953;48.810;9.204;2023-09-12T00:10:22;98344.78;;;21.64;100.00
13765;BME280;6953;48.810;9.204;2023-09-12T00:12:47;98368.66;;;21.65;100.00
13765;BME280;6953;48.810;9.204;2023-09-12T00:15:13;98339.59;;;21.62;100.00
13765;BME280;6953;48.810;9.204;2023-09-12T00:17:38;98339.50;;;21.54;100.00
13765;BME280;6953;48.810;9.204;2023-09-12T00:20:03;98328.16;;;21.52;100.00
13765;BME280;6953;48.810;9.204;2023-09-12T00:22:31;98355.69;;;21.53;100.00
13765;BME280;6953;48.810;9.204;2023-09-12T00:24:56;98337.84;;;21.53;100.00
13765;BME280;6953;48.810;9.204;2023-09-12T00:27:22;98340.38;;;21.55;100.00
13765;BME280;6953;48.810;9.204;2023-09-12T00:29:47;98344.03;;;21.54;100.00
13765;BME280;6953;48.810;9.204;2023-09-12T00:32:12;98327.00;;;21.55;100.00
13765;BME280;6953;48.810;9.204;2023-09-12T00:34:37;98112.97;;;20.24;100.00
13765;BME280;6953;48.810;9.204;2023-09-12T00:37:03;98098.63;;;20.17;100.00
13765;BME280;6953;48.810;9.204;2023-09-12T00:39:28;98308.22;;;21.39;100.00
13765;BME280;6953;48.810;9.204;2023-09-12T00:41:53;98355.69;;;21.53;100.00
13765;BME280;6953;48.810;9.204;2023-09-12T00:44:19;98343.97;;;21.46;100.00
13765;BME280;6953;48.810;9.204;2023-09-12T00:46:45;98341.66;;;21.51;100.00
13765;BME280;6953;48.810;9.204;2023-09-12T00:49:11;98325.59;;;21.43;100.00
13765;BME280;6953;48.810;9.204;2023-09-12T00:51:37;98331.09;;;21.41;100.00
13765;BME280;6953;48.810;9.204;2023-09-12T00:54:03;98334.59;;;21.42;100.00
13765;BME280;6953;48.810;9.204;2023-09-12T00:56:28;98331.78;;;21.43;100.00
13765;BME280;6953;48.810;9.204;2023-09-12T00:58:54;98329.94;;;21.44;100.00
13765;BME280;6953;48.810;9.204;2023-09-12T01:01:20;98178.59;;;20.43;100.00
13765;BME280;6953;48.810;9.204;2023-09-12T01:03:45;98176.22;;;20.40;100.00
13765;BME280;6953;48.810;9.204;2023-09-12T01:06:12;98331.03;;;21.33;100.00
13765;BME280;6953;48.810;9.204;2023-09-12T01:08:39;98334.09;;;21.21;100.00
13765;BME280;6953;48.810;9.204;2023-09-12T01:11:04;98332.47;;;21.02;100.00
13765;BME280;6953;48.810;9.204;2023-09-12T01:13:30;98330.53;;;21.12;100.00
13765;BME280;6953;48.810;9.204;2023-09-12T01:15:56;98273.53;;;20.79;100.00
13765;BME280;6953;48.810;9.204;2023-09-12T01:18:21;98319.13;;;21.02;100.00
13765;BME280;6953;48.810;9.204;2023-09-12T01:26:49;98319.50;;;20.90;100.00
13765;BME280;6953;48.810;9.204;2023-09-12T01:29:18;98320.13;;;20.84;100.00
13765;BME280;6953;48.810;9.204;2023-09-12T01:31:46;98075.97;;;19.34;100.00
13765;BME280;6953;48.810;9.204;2023-09-12T01:34:12;98322.25;;;20.81;100.00
13765;BME280;6953;48.810;9.204;2023-09-12T01:36:38;98304.31;;;20.56;100.00
13765;BME280;6953;48.810;9.204;2023-09-12T01:39:04;98100.47;;;19.55;100.00
13765;BME280;6953;48.810;9.204;2023-09-12T01:41:31;98115.91;;;19.69;100.00
13765;BME280;6953;48.810;9.204;2023-09-12T01:43:58;98326.06;;;20.96;100.00
13765;BME280;6953;48.810;9.204;2023-09-12T01:46:25;98341.91;;;20.80;100.00
13765;BME280;6953;48.810;9.204;2023-09-12T01:48:53;98357.06;;;20.97;100.00
13765;BME280;6953;48.810;9.204;2023-09-12T01:51:22;98191.09;;;20.07;100.00
13765;BME280;6953;48.810;9.204;2023-09-12T01:53:48;98166.94;;;19.91;100.00
13765;BME280;6953;48.810;9.204;2023-09-12T01:56:14;98333.66;;;20.91;100.00
13765;BME280;6953;48.810;9.204;2023-09-12T01:58:40;98314.25;;;20.81;100.00
13765;BME280;6953;48.810;9.204;2023-09-12T02:01:05;98329.19;;;20.91;100.00
13765;BME280;6953;48.810;9.204;2023-09-12T02:03:31;98339.00;;;20.91;100.00
13765;BME280;6953;48.810;9.204;2023-09-12T02:05:56;98226.09;;;20.30;100.00
13765;BME280;6953;48.810;9.204;2023-09-12T02:08:22;98326.13;;;20.86;100.00
13765;BME280;6953;48.810;9.204;2023-09-12T02:10:47;98155.34;;;19.83;100.00
13765;BME280;6953;48.810;9.204;2023-09-12T02:13:13;98356.78;;;20.82;100.00
13765;BME280;6953;48.810;9.204;2023-09-12T02:15:39;98069.97;;;19.32;100.00
13765;BME280;6953;48.810;9.204;2023-09-12T02:18:04;98148.94;;;19.76;100.00
13765;BME280;6953;48.810;9.204;2023-09-12T02:20:31;98334.59;;;20.82;100.00
13765;BME280;6953;48.810;9.204;2023-09-12T02:22:56;98325.19;;;20.78;100.00
13765;BME280;6953;48.810;9.204;2023-09-12T02:25:21;98320.84;;;20.77;100.00
13765;BME280;6953;48.810;9.204;2023-09-12T02:27:46;98317.09;;;20.70;100.00
13765;BME280;6953;48.810;9.204;2023-09-12T02:30:12;98323.69;;;20.75;100.00
13765;BME280;6953;48.810;9.204;2023-09-12T02:32:37;98157.94;;;19.75;100.00
13765;BME280;6953;48.810;9.204;2023-09-12T02:35:03;98321.03;;;20.75;100.00
13765;BME280;6953;48.810;9.204;2023-09-12T02:37:28;98317.97;;;20.70;100.00
13765;BME280;6953;48.810;9.204;2023-09-12T02:39:53;98102.28;;;19.37;100.00
13765;BME280;6953;48.810;9.204;2023-09-12T02:42:18;98074.66;;;19.21;100.00
13765;BME280;6953;48.810;9.204;2023-09-12T02:44:44;98247.34;;;20.22;100.00
13765;BME280;6953;48.810;9.204;2023-09-12T02:47:09;98313.16;;;20.56;100.00
13765;BME280;6953;48.810;9.204;2023-09-12T02:49:34;98306.84;;;20.57;100.00
13765;BME280;6953;48.810;9.204;2023-09-12T02:52:00;98309.53;;;20.57;100.00
13765;BME280;6953;48.810;9.204;2023-09-12T02:54:25;98299.16;;;20.54;100.00
13765;BME280;6953;48.810;9.204;2023-09-12T02:56:50;98297.59;;;20.52;100.00
13765;BME280;6953;48.810;9.204;2023-09-12T02:59:15;98318.25;;;20.50;100.00
13765;BME280;6953;48.810;9.204;2023-09-12T03:01:41;98071.19;;;19.11;100.00
13765;BME280;6953;48.810;9.204;2023-09-12T03:04:06;98310.88;;;20.44;100.00
13765;BME280;6953;48.810;9.204;2023-09-12T03:06:31;98301.34;;;20.41;100.00
13765;BME280;6953;48.810;9.204;2023-09-12T03:08:57;98221.47;;;19.88;100.00
13765;BME280;6953;48.810;9.204;2023-09-12T03:11:26;98302.31;;;20.40;100.00
13765;BME280;6953;48.810;9.204;2023-09-12T03:13:52;98332.94;;;20.36;100.00
13765;BME280;6953;48.810;9.204;2023-09-12T03:16:17;98084.25;;;19.04;100.00
13765;BME280;6953;48.810;9.204;2023-09-12T03:18:42;98312.75;;;20.34;100.00
13765;BME280;6953;48.810;9.204;2023-09-12T03:21:08;98324.56;;;20.31;100.00
13765;BME280;6953;48.810;9.204;2023-09-12T03:23:33;98292.09;;;20.18;100.00
13765;BME280;6953;48.810;9.204;2023-09-12T03:26:05;98306.03;;;20.30;100.00
13765;BME280;6953;48.810;9.204;2023-09-12T03:28:31;98249.47;;;19.91;100.00
13765;BME280;6953;48.810;9.204;2023-09-12T03:31:10;98307.34;;;20.26;100.00
13765;BME280;6953;48.810;9.204;2023-09-12T03:33:37;98232.19;;;19.78;100.00
13765;BME280;6953;48.810;9.204;2023-09-12T03:36:03;98305.56;;;20.17;100.00
13765;BME280;6953;48.810;9.204;2023-09-12T03:38:28;98299.72;;;20.13;100.00
13765;BME280;6953;48.810;9.204;2023-09-12T03:40:53;98284.47;;;20.06;100.00
13765;BME280;6953;48.810;9.204;2023-09-12T03:43:19;98336.16;;;20.13;100.00
13765;BME280;6953;48.810;9.204;2023-09-12T03:45:44;98317.28;;;20.06;100.00
13765;BME280;6953;48.810;9.204;2023-09-12T03:48:09;98245.94;;;19.74;100.00
13765;BME280;6953;48.810;9.204;2023-09-12T03:50:35;98300.31;;;20.07;100.00
13765;BME280;6953;48.810;9.204;2023-09-12T03:53:00;98328.22;;;20.03;100.00
13765;BME280;6953;48.810;9.204;2023-09-12T03:55:25;98125.53;;;18.99;100.00
13765;BME280;6953;48.810;9.204;2023-09-12T03:57:50;98282.56;;;19.89;100.00
13765;BME280;6953;48.810;9.204;2023-09-12T04:00:16;98262.63;;;19.76;100.00
13765;BME280;6953;48.810;9.204;2023-09-12T04:02:41;98312.13;;;19.95;100.00
13765;BME280;6953;48.810;9.204;2023-09-12T04:05:07;98315.78;;;19.94;100.00
13765;BME280;6953;48.810;9.204;2023-09-12T04:07:32;98308.75;;;19.93;100.00
13765;BME280;6953;48.810;9.204;2023-09-12T04:09:57;98125.88;;;18.86;100.00
13765;BME280;6953;48.810;9.204;2023-09-12T04:12:22;98294.19;;;19.88;100.00
13765;BME280;6953;48.810;9.204;2023-09-12T04:14:49;98270.72;;;19.74;100.00
13765;BME280;6953;48.810;9.204;2023-09-12T04:17:15;98302.19;;;19.88;100.00
13765;BME280;6953;48.810;9.204;2023-09-12T04:19:40;98148.53;;;18.90;100.00
13765;BME280;6953;48.810;9.204;2023-09-12T04:22:05;98305.16;;;19.85;100.00
13765;BME280;6953;48.810;9.204;2023-09-12T04:24:30;98302.50;;;19.85;100.00
13765;BME280;6953;48.810;9.204;2023-09-12T04:26:56;98204.88;;;19.22;100.00
13765;BME280;6953;48.810;9.204;2023-09-12T04:29:21;98341.31;;;19.88;100.00
13765;BME280;6953;48.810;9.204;2023-09-12T04:31:46;98210.84;;;19.34;100.00
13765;BME280;6953;48.810;9.204;2023-09-12T04:34:11;98297.41;;;19.91;100.00
13765;BME280;6953;48.810;9.204;2023-09-12T04:36:37;98299.78;;;19.94;100.00
13765;BME280;6953;48.810;9.204;2023-09-12T04:39:02;98303.03;;;19.98;100.00
13765;BME280;6953;48.810;9.204;2023-09-12T04:41:27;98294.03;;;19.99;100.00
13765;BME280;6953;48.810;9.204;2023-09-12T04:43:53;98073.09;;;18.65;100.00
13765;BME280;6953;48.810;9.204;2023-09-12T04:46:18;98294.03;;;19.99;100.00
13765;BME280;6953;48.810;9.204;2023-09-12T04:48:43;98069.59;;;18.64;100.00
13765;BME280;6953;48.810;9.204;2023-09-12T04:51:09;98295.97;;;19.97;100.00
13765;BME280;6953;48.810;9.204;2023-09-12T04:53:34;98328.84;;;19.97;100.00
13765;BME280;6953;48.810;9.204;2023-09-12T04:56:03;98294.47;;;19.94;100.00
13765;BME280;6953;48.810;9.204;2023-09-12T04:58:29;98302.44;;;20.04;100.00
13765;BME280;6953;48.810;9.204;2023-09-12T05:00:54;98271.31;;;19.95;100.00
13765;BME280;6953;48.810;9.204;2023-09-12T05:03:20;98181.56;;;19.34;100.00
13765;BME280;6953;48.810;9.204;2023-09-12T05:05:47;97938.66;;;17.99;100.00
13765;BME280;6953;48.810;9.204;2023-09-12T05:08:12;98065.78;;;18.67;100.00
13765;BME280;6953;48.810;9.204;2023-09-12T05:10:38;98314.41;;;20.17;100.00
13765;BME280;6953;48.810;9.204;2023-09-12T05:13:04;98305.28;;;20.20;100.00
13765;BME280;6953;48.810;9.204;2023-09-12T05:15:29;98315.34;;;20.26;100.00
13765;BME280;6953;48.810;9.204;2023-09-12T05:17:55;98337.03;;;20.31;100.00
13765;BME280;6953;48.810;9.204;2023-09-12T05:20:20;98314.44;;;20.35;100.00
13765;BME280;6953;48.810;9.204;2023-09-12T05:22:45;98334.00;;;20.43;100.00
13765;BME280;6953;48.810;9.204;2023-09-12T05:25:10;98297.53;;;20.44;100.00
13765;BME280;6953;48.810;9.204;2023-09-12T05:27:36;98294.13;;;20.51;100.00
13765;BME280;6953;48.810;9.204;2023-09-12T05:30:01;98290.38;;;20.62;100.00
13765;BME280;6953;48.810;9.204;2023-09-12T05:32:27;98240.50;;;20.37;100.00
13765;BME280;6953;48.810;9.204;2023-09-12T05:34:52;98303.44;;;20.82;100.00
13765;BME280;6953;48.810;9.204;2023-09-12T05:37:17;98307.00;;;20.91;100.00
13765;BME280;6953;48.810;9.204;2023-09-12T05:39:44;98316.44;;;21.02;100.00
13765;BME280;6953;48.810;9.204;2023-09-12T05:42:09;98330.47;;;21.04;100.00
13765;BME280;6953;48.810;9.204;2023-09-12T05:44:34;98239.19;;;20.76;100.00
13765;BME280;6953;48.810;9.204;2023-09-12T05:46:59;98260.94;;;21.06;99.31
13765;BME280;6953;48.810;9.204;2023-09-12T05:49:25;98324.75;;;21.60;98.00
13765;BME280;6953;48.810;9.204;2023-09-12T05:51:50;98140.00;;;20.72;96.84
13765;BME280;6953;48.810;9.204;2023-09-12T05:54:16;98324.81;;;22.09;95.56
13765;BME280;6953;48.810;9.204;2023-09-12T05:56:41;98286.75;;;22.15;94.06
13765;BME280;6953;48.810;9.204;2023-09-12T05:59:07;98153.88;;;21.76;91.25
13765;BME280;6953;48.810;9.204;2023-09-12T06:01:32;98327.72;;;23.60;87.93
13765;BME280;6953;48.810;9.204;2023-09-12T06:03:57;98303.69;;;23.99;85.28
13765;BME280;6953;48.810;9.204;2023-09-12T06:06:23;98334.56;;;24.25;83.46
13765;BME280;6953;48.810;9.204;2023-09-12T06:08:48;98336.47;;;24.09;83.09
13765;BME280;6953;48.810;9.204;2023-09-12T06:11:14;98336.81;;;24.06;82.95
13765;BME280;6953;48.810;9.204;2023-09-12T06:13:39;98337.94;;;24.19;82.21
13765;BME280;6953;48.810;9.204;2023-09-12T06:16:05;98112.63;;;22.98;80.88
13765;BME280;6953;48.810;9.204;2023-09-12T06:18:31;98339.38;;;24.37;80.55
13765;BME280;6953;48.810;9.204;2023-09-12T06:20:58;98334.13;;;24.44;80.45
13765;BME280;6953;48.810;9.204;2023-09-12T06:23:23;98334.13;;;24.52;79.93
13765;BME280;6953;48.810;9.204;2023-09-12T06:25:49;98111.19;;;23.33;79.39
13765;BME280;6953;48.810;9.204;2023-09-12T06:28:25;98335.00;;;24.75;78.98
13765;BME280;6953;48.810;9.204;2023-09-12T06:30:50;98339.19;;;24.77;78.80
13765;BME280;6953;48.810;9.204;2023-09-12T06:33:15;98202.13;;;24.04;77.99
13765;BME280;6953;48.810;9.204;2023-09-12T06:35:41;98352.19;;;25.11;77.45
13765;BME280;6953;48.810;9.204;2023-09-12T06:38:06;98149.00;;;24.07;76.26
13765;BME280;6953;48.810;9.204;2023-09-12T06:40:31;98347.78;;;25.40;76.27
13765;BME280;6953;48.810;9.204;2023-09-12T06:42:56;98187.09;;;24.47;75.45
13765;BME280;6953;48.810;9.204;2023-09-12T06:45:22;98361.16;;;25.62;74.95
13765;BME280;6953;48.810;9.204;2023-09-12T06:47:47;98343.38;;;25.61;74.35
13765;BME280;6953;48.810;9.204;2023-09-12T06:50:12;98345.13;;;25.54;74.62
13765;BME280;6953;48.810;9.204;2023-09-12T06:52:37;98090.03;;;24.44;73.09
13765;BME280;6953;48.810;9.204;2023-09-12T06:55:03;98357.34;;;26.51;70.83
13765;BME280;6953;48.810;9.204;2023-09-12T06:57:28;98370.56;;;26.82;69.02
13765;BME280;6953;48.810;9.204;2023-09-12T06:59:54;98369.06;;;26.94;67.29
13765;BME280;6953;48.810;9.204;2023-09-12T07:02:19;98169.78;;;25.81;67.70
13765;BME280;6953;48.810;9.204;2023-09-12T07:04:44;98373.25;;;26.82;68.68
13765;BME280;6953;48.810;9.204;2023-09-12T07:07:10;98364.16;;;27.04;67.72
13765;BME280;6953;48.810;9.204;2023-09-12T07:09:35;98353.44;;;27.25;66.65
13765;BME280;6953;48.810;9.204;2023-09-12T07:12:00;98403.28;;;27.77;64.73
13765;BME280;6953;48.810;9.204;2023-09-12T07:14:25;98182.19;;;27.22;62.30
13765;BME280;6953;48.810;9.204;2023-09-12T07:16:51;98203.03;;;28.09;58.96
13765;BME280;6953;48.810;9.204;2023-09-12T07:19:16;98371.66;;;29.13;59.05
13765;BME280;6953;48.810;9.204;2023-09-12T07:21:41;98378.72;;;29.07;58.89
13765;BME280;6953;48.810;9.204;2023-09-12T07:24:07;98382.28;;;28.67;59.77
13765;BME280;6953;48.810;9.204;2023-09-12T07:26:32;98380.25;;;28.76;59.79
13765;BME280;6953;48.810;9.204;2023-09-12T07:28:57;98375.25;;;30.30;53.85
13765;BME280;6953;48.810;9.204;2023-09-12T07:31:23;98363.91;;;30.65;51.45
13765;BME280;6953;48.810;9.204;2023-09-12T07:33:48;98235.88;;;29.63;51.46
13765;BME280;6953;48.810;9.204;2023-09-12T07:36:13;98249.19;;;29.38;53.21
13765;BME280;6953;48.810;9.204;2023-09-12T07:38:39;98396.31;;;29.89;54.21
13765;BME280;6953;48.810;9.204;2023-09-12T07:41:04;98208.94;;;28.32;56.26
13765;BME280;6953;48.810;9.204;2023-09-12T07:43:30;98387.31;;;28.77;57.88
13765;BME280;6953;48.810;9.204;2023-09-12T07:45:58;98334.34;;;27.95;59.61
13765;BME280;6953;48.810;9.204;2023-09-12T07:48:24;98360.66;;;29.14;56.63
13765;BME280;6953;48.810;9.204;2023-09-12T07:50:49;98401.66;;;31.10;49.69
13765;BME280;6953;48.810;9.204;2023-09-12T07:53:16;98400.41;;;33.02;42.98
13765;BME280;6953;48.810;9.204;2023-09-12T07:55:41;98290.56;;;34.23;37.80
13765;BME280;6953;48.810;9.204;2023-09-12T07:58:14;98402.22;;;36.74;33.50
13765;BME280;6953;48.810;9.204;2023-09-12T08:00:39;98398.69;;;37.38;31.24
13765;BME280;6953;48.810;9.204;2023-09-12T08:03:05;98390.31;;;37.28;31.50
13765;BME280;6953;48.810;9.204;2023-09-12T08:05:30;98385.63;;;37.50;31.18
13765;BME280;6953;48.810;9.204;2023-09-12T08:07:55;98387.44;;;37.40;31.11
13765;BME280;6953;48.810;9.204;2023-09-12T08:10:21;98386.34;;;36.55;32.61
13765;BME280;6953;48.810;9.204;2023-09-12T08:12:46;98387.25;;;35.62;34.29
13765;BME280;6953;48.810;9.204;2023-09-12T08:15:11;98334.63;;;34.43;36.05
13765;BME280;6953;48.810;9.204;2023-09-12T08:17:38;98392.25;;;34.98;36.10
13765;BME280;6953;48.810;9.204;2023-09-12T08:20:04;98403.34;;;34.80;35.93
13765;BME280;6953;48.810;9.204;2023-09-12T08:22:30;98394.22;;;34.06;38.12
13765;BME280;6953;48.810;9.204;2023-09-12T08:24:55;98384.13;;;34.06;37.35
13765;BME280;6953;48.810;9.204;2023-09-12T08:27:20;98392.25;;;34.98;35.51
13765;BME280;6953;48.810;9.204;2023-09-12T08:29:46;98398.03;;;34.50;37.58
13765;BME280;6953;48.810;9.204;2023-09-12T08:32:13;98215.22;;;33.03;38.26
13765;BME280;6953;48.810;9.204;2023-09-12T08:34:38;98373.47;;;33.82;38.73
13765;BME280;6953;48.810;9.204;2023-09-12T08:37:04;98357.72;;;33.31;39.55
13765;BME280;6953;48.810;9.204;2023-09-12T08:39:41;98386.09;;;33.06;41.07
13765;BME280;6953;48.810;9.204;2023-09-12T08:42:14;98349.59;;;32.48;42.25
13765;BME280;6953;48.810;9.204;2023-09-12T08:44:40;98373.34;;;32.53;42.57
13765;BME280;6953;48.810;9.204;2023-09-12T08:47:08;98332.25;;;32.67;41.18
13765;BME280;6953;48.810;9.204;2023-09-12T08:49:35;98253.28;;;34.63;35.48
13765;BME280;6953;48.810;9.204;2023-09-12T08:52:01;98355.75;;;38.06;30.31
13765;BME280;6953;48.810;9.204;2023-09-12T08:54:26;98262.72;;;40.07;25.92
13765;BME280;6953;48.810;9.204;2023-09-12T08:56:51;98407.78;;;42.34;24.58
13765;BME280;6953;48.810;9.204;2023-09-12T08:59:17;98431.63;;;43.29;22.67
13765;BME280;6953;48.810;9.204;2023-09-12T09:01:43;98415.53;;;43.91;21.66
13765;BME280;6953;48.810;9.204;2023-09-12T09:04:09;98269.84;;;42.53;22.61
13765;BME280;6953;48.810;9.204;2023-09-12T09:06:35;98407.25;;;43.73;22.30
13765;BME280;6953;48.810;9.204;2023-09-12T09:09:04;98401.56;;;43.64;22.38
13765;BME280;6953;48.810;9.204;2023-09-12T09:11:30;98287.63;;;43.07;22.08
13765;BME280;6953;48.810;9.204;2023-09-12T09:13:55;98400.97;;;45.08;20.95
13765;BME280;6953;48.810;9.204;2023-09-12T09:16:22;98280.09;;;45.56;19.68
13765;BME280;6953;48.810;9.204;2023-09-12T09:19:04;98413.81;;;46.98;18.87
13765;BME280;6953;48.810;9.204;2023-09-12T09:21:37;98394.22;;;46.72;19.94
13765;BME280;6953;48.810;9.204;2023-09-12T09:24:13;98311.53;;;46.78;18.63
13765;BME280;6953;48.810;9.204;2023-09-12T09:26:44;98403.72;;;47.66;18.19
13765;BME280;6953;48.810;9.204;2023-09-12T09:29:13;98380.31;;;48.01;17.70
13765;BME280;6953;48.810;9.204;2023-09-12T09:31:40;98265.09;;;48.14;17.54
13765;BME280;6953;48.810;9.204;2023-09-12T09:36:42;98389.84;;;48.71;17.67
13765;BME280;6953;48.810;9.204;2023-09-12T09:39:08;98330.13;;;48.72;16.91
13765;BME280;6953;48.810;9.204;2023-09-12T09:41:33;98367.06;;;49.35;16.93
13765;BME280;6953;48.810;9.204;2023-09-12T09:43:59;98369.44;;;48.88;16.84
13765;BME280;6953;48.810;9.204;2023-09-12T09:46:25;98390.19;;;49.07;16.70
13765;BME280;6953;48.810;9.204;2023-09-12T09:48:51;98371.91;;;49.18;17.08
13765;BME280;6953;48.810;9.204;2023-09-12T09:51:17;98360.69;;;49.76;16.24
13765;BME280;6953;48.810;9.204;2023-09-12T09:53:43;98368.38;;;49.99;16.24
13765;BME280;6953;48.810;9.204;2023-09-12T09:56:15;98367.47;;;49.87;15.47
13765;BME280;6953;48.810;9.204;2023-09-12T10:01:21;98369.81;;;50.05;15.47
13765;BME280;6953;48.810;9.204;2023-09-12T10:03:47;98352.78;;;49.98;15.23
13765;BME280;6953;48.810;9.204;2023-09-12T10:06:15;98349.25;;;49.69;16.36
13765;BME280;6953;48.810;9.204;2023-09-12T10:08:43;98233.66;;;48.80;15.81
13765;BME280;6953;48.810;9.204;2023-09-12T10:11:08;98344.69;;;49.64;15.73
13765;BME280;6953;48.810;9.204;2023-09-12T10:13:35;98329.00;;;50.69;14.73
13765;BME280;6953;48.810;9.204;2023-09-12T10:16:02;98352.59;;;51.55;14.46
13765;BME280;6953;48.810;9.204;2023-09-12T10:18:33;98242.25;;;51.17;13.66
13765;BME280;6953;48.810;9.204;2023-09-12T10:21:10;98266.31;;;50.94;13.95
13765;BME280;6953;48.810;9.204;2023-09-12T10:23:43;98350.00;;;51.34;14.18
13765;BME280;6953;48.810;9.204;2023-09-12T10:26:13;98315.41;;;51.42;14.22
13765;BME280;6953;48.810;9.204;2023-09-12T10:28:40;98351.47;;;51.83;14.08
13765;BME280;6953;48.810;9.204;2023-09-12T10:31:08;98321.56;;;52.27;13.47
13765;BME280;6953;48.810;9.204;2023-09-12T10:33:34;98351.78;;;52.48;13.79
13765;BME280;6953;48.810;9.204;2023-09-12T10:36:03;98307.03;;;51.82;13.49
13765;BME280;6953;48.810;9.204;2023-09-12T10:38:29;98230.56;;;51.27;13.84
13765;BME280;6953;48.810;9.204;2023-09-12T10:41:00;98336.97;;;52.21;13.71
13765;BME280;6953;48.810;9.204;2023-09-12T10:43:26;98301.84;;;51.68;13.60
13765;BME280;6953;48.810;9.204;2023-09-12T10:45:51;98311.97;;;50.98;14.34
13765;BME280;6953;48.810;9.204;2023-09-12T10:48:17;98348.50;;;52.31;13.46
13765;BME280;6953;48.810;9.204;2023-09-12T10:50:43;98209.03;;;52.59;13.13
13765;BME280;6953;48.810;9.204;2023-09-12T10:55:36;98299.66;;;54.19;11.98
13765;BME280;6953;48.810;9.204;2023-09-12T10:58:03;98359.94;;;54.22;12.52
13765;BME280;6953;48.810;9.204;2023-09-12T11:00:29;98336.31;;;53.69;12.48
13765;BME280;6953;48.810;9.204;2023-09-12T11:02:57;98355.34;;;53.07;12.99
13765;BME280;6953;48.810;9.204;2023-09-12T11:07:58;98303.34;;;51.15;14.20
13765;BME280;6953;48.810;9.204;2023-09-12T11:10:24;98317.69;;;51.25;13.89
13765;BME280;6953;48.810;9.204;2023-09-12T11:12:52;98332.97;;;52.06;13.10
13765;BME280;6953;48.810;9.204;2023-09-12T11:15:20;98331.59;;;52.28;12.87
13765;BME280;6953;48.810;9.204;2023-09-12T11:17:47;98320.72;;;52.26;12.87
13765;BME280;6953;48.810;9.204;2023-09-12T11:20:14;98329.38;;;52.95;12.72
13765;BME280;6953;48.810;9.204;2023-09-12T11:22:47;98278.75;;;52.45;12.85
13765;BME280;6953;48.810;9.204;2023-09-12T11:25:23;98226.50;;;52.22;12.75
13765;BME280;6953;48.810;9.204;2023-09-12T11:30:18;98225.94;;;52.62;12.20
13765;BME280;6953;48.810;9.204;2023-09-12T11:32:45;98312.50;;;53.63;11.72
13765;BME280;6953;48.810;9.204;2023-09-12T11:35:13;98274.94;;;54.09;11.88
13765;BME280;6953;48.810;9.204;2023-09-12T11:37:38;98227.53;;;54.30;11.61
13765;BME280;6953;48.810;9.204;2023-09-12T11:42:41;98296.84;;;54.42;11.82
13765;BME280;6953;48.810;9.204;2023-09-12T11:45:08;98305.78;;;54.25;11.43
13765;BME280;6953;48.810;9.204;2023-09-12T11:47:33;98291.41;;;54.30;11.25
13765;BME280;6953;48.810;9.204;2023-09-12T11:49:59;98292.13;;;53.48;12.00
13765;BME280;6953;48.810;9.204;2023-09-12T11:52:24;98204.31;;;52.97;12.06
13765;BME280;6953;48.810;9.204;2023-09-12T11:54:49;98267.97;;;54.03;10.90
13765;BME280;6953;48.810;9.204;2023-09-12T11:57:15;98267.16;;;54.44;11.35
13765;BME280;6953;48.810;9.204;2023-09-12T11:59:44;98187.22;;;53.59;11.78
13765;BME280;6953;48.810;9.204;2023-09-12T12:02:11;98292.38;;;53.43;11.41
13765;BME280;6953;48.810;9.204;2023-09-12T12:04:37;98288.03;;;53.45;11.78
13765;BME280;6953;48.810;9.204;2023-09-12T12:07:03;98250.25;;;53.24;11.68
13765;BME280;6953;48.810;9.204;2023-09-12T12:09:32;98186.81;;;53.04;11.22
13765;BME280;6953;48.810;9.204;2023-09-12T12:12:09;98109.50;;;52.68;11.87
13765;BME280;6953;48.810;9.204;2023-09-12T12:14:34;98288.81;;;53.27;11.53
13765;BME280;6953;48.810;9.204;2023-09-12T12:17:08;98308.22;;;53.16;11.36
13765;BME280;6953;48.810;9.204;2023-09-12T12:19:34;98282.16;;;52.08;12.00
13765;BME280;6953;48.810;9.204;2023-09-12T12:22:02;98280.03;;;50.51;13.05
13765;BME280;6953;48.810;9.204;2023-09-12T12:24:36;98267.41;;;49.89;14.29
13765;BME280;6953;48.810;9.204;2023-09-12T12:27:03;98115.91;;;48.33;14.45
13765;BME280;6953;48.810;9.204;2023-09-12T12:29:30;98260.75;;;48.42;15.09
13765;BME280;6953;48.810;9.204;2023-09-12T12:31:59;98260.09;;;48.74;15.00
13765;BME280;6953;48.810;9.204;2023-09-12T12:34:26;98200.50;;;49.92;13.62
13765;BME280;6953;48.810;9.204;2023-09-12T12:36:51;98113.34;;;50.46;12.67
13765;BME280;6953;48.810;9.204;2023-09-12T12:39:16;98248.50;;;51.92;12.13
13765;BME280;6953;48.810;9.204;2023-09-12T12:41:42;98239.09;;;52.00;11.83
13765;BME280;6953;48.810;9.204;2023-09-12T12:44:08;98213.91;;;51.73;12.32
13765;BME280;6953;48.810;9.204;2023-09-12T12:46:34;98248.50;;;50.62;12.36
13765;BME280;6953;48.810;9.204;2023-09-12T12:48:59;98245.41;;;49.34;13.65
13765;BME280;6953;48.810;9.204;2023-09-12T12:51:25;98196.53;;;48.38;14.68
13765;BME280;6953;48.810;9.204;2023-09-12T12:53:55;98213.47;;;48.83;13.70
13765;BME280;6953;48.810;9.204;2023-09-12T12:56:28;98244.22;;;50.20;12.86
13765;BME280;6953;48.810;9.204;2023-09-12T12:58:58;98251.66;;;51.36;12.45
13765;BME280;6953;48.810;9.204;2023-09-12T13:01:25;98245.16;;;51.08;12.55
13765;BME280;6953;48.810;9.204;2023-09-12T13:03:51;98245.09;;;50.93;12.95
13765;BME280;6953;48.810;9.204;2023-09-12T13:06:17;98260.75;;;51.72;12.58
13765;BME280;6953;48.810;9.204;2023-09-12T13:08:44;98237.91;;;52.29;11.56
13765;BME280;6953;48.810;9.204;2023-09-12T13:11:11;98233.78;;;52.88;11.60
13765;BME280;6953;48.810;9.204;2023-09-12T13:13:37;98226.06;;;53.00;11.77
13765;BME280;6953;48.810;9.204;2023-09-12T13:16:07;98232.09;;;51.12;13.10
13765;BME280;6953;48.810;9.204;2023-09-12T13:18:35;98047.59;;;47.15;14.67
13765;BME280;6953;48.810;9.204;2023-09-12T13:21:00;98173.22;;;45.89;16.21
13765;BME280;6953;48.810;9.204;2023-09-12T13:23:27;98024.31;;;44.14;17.45